.
WxDataArchive / Data Records for 2009-05-12
2009-05-11 May 2009 2009-05-13

Data Records for Tuesday, 12 May 2009

Time	Temp	Chill	HIndex	Humid	Dewpt	 Wind 	HiWind	WindDir	Rain 	Barom 
-----	----	-----	------	-----	-----	------	------	-------	-----	----- 
00:00	45.5	45.5	45.5	56	30.7	0	0	---	0.00	30.189 
00:05	45.4	45.4	45.4	55	30.2	0	0	---	0.00	30.189 
00:10	45.1	45.1	45.1	56	30.4	0	0	---	0.00	30.189 
00:15	44.8	44.8	44.8	55	29.6	0	0	---	0.00	30.190 
00:20	44.5	44.5	44.5	56	29.8	0	0	---	0.00	30.190 
00:25	44.1	44.1	44.1	56	29.4	0	0	---	0.00	30.190 
00:30	43.8	43.8	43.8	56	29.1	0	0	---	0.00	30.187 
00:35	43.6	43.6	43.6	58	29.8	0	0	---	0.00	30.187 
00:40	43.3	43.3	43.3	58	29.5	0	0	---	0.00	30.187 
00:45	43.2	43.2	43.2	59	29.9	0	0	---	0.00	30.189 
00:50	42.9	42.9	42.9	61	30.4	0	0	---	0.00	30.189 
00:55	42.8	42.8	42.8	62	30.7	0	0	---	0.00	30.189 
01:00	42.5	42.5	42.5	62	30.4	0	0	---	0.00	30.190 
01:05	42.3	42.3	42.3	62	30.2	0	0	---	0.00	30.190 
01:10	42.1	42.1	42.1	63	30.4	0	0	---	0.00	30.190 
01:15	41.8	41.8	41.8	64	30.5	0	0	---	0.00	30.190 
01:20	41.5	41.5	41.5	65	30.6	0	0	---	0.00	30.190 
01:25	41.2	41.2	41.2	65	30.3	0	0	---	0.00	30.190 
01:30	40.9	40.9	40.9	65	30.1	0	0	---	0.00	30.192 
01:35	40.8	40.8	40.8	66	30.3	0	0	---	0.00	30.192 
01:40	40.6	40.6	40.6	66	30.1	0	0	---	0.00	30.192 
01:45	40.5	40.5	40.5	68	30.8	0	0	---	0.00	30.193 
01:50	40.3	40.3	40.3	69	31.0	0	0	---	0.00	30.193 
01:55	40.1	40.1	40.1	70	31.1	0	1	270	0.00	30.193 
02:00	39.9	39.9	39.9	70	30.9	0	0	---	0.00	30.195 
02:05	39.8	39.8	39.8	69	30.5	0	0	---	0.00	30.195 
02:10	39.6	39.6	39.6	69	30.3	0	0	---	0.00	30.195 
02:15	39.5	39.5	39.5	69	30.2	0	0	---	0.00	30.195 
02:20	39.3	39.3	39.3	70	30.3	0	0	---	0.00	30.195 
02:25	39.2	39.2	39.2	71	30.6	0	0	---	0.00	30.195 
02:30	39.1	39.1	39.1	72	30.8	0	0	---	0.00	30.196 
02:35	38.9	38.9	38.9	73	31.0	0	0	---	0.00	30.196 
02:40	38.6	38.6	38.6	73	30.7	0	0	---	0.00	30.196 
02:45	38.3	38.3	38.3	73	30.4	0	0	---	0.00	30.198 
02:50	38.2	38.2	38.2	74	30.7	0	0	---	0.00	30.198 
02:55	38.0	38.0	38.0	75	30.8	0	0	---	0.00	30.198 
03:00	37.8	37.8	37.8	76	30.9	0	0	---	0.00	30.200 
03:05	37.6	37.6	37.6	76	30.7	0	0	---	0.00	30.200 
03:10	37.5	37.5	37.5	76	30.6	0	0	---	0.00	30.200 
03:15	37.2	37.2	37.2	76	30.3	0	0	---	0.00	30.201 
03:20	37.0	37.0	37.0	77	30.5	0	0	---	0.00	30.201 
03:25	36.9	36.9	36.9	78	30.7	0	0	---	0.00	30.201 
03:30	36.6	36.6	36.6	79	30.7	0	0	---	0.00	30.199 
03:35	36.5	36.5	36.5	79	30.6	0	0	---	0.00	30.199 
03:40	36.3	36.3	36.3	80	30.7	0	0	---	0.00	30.199 
03:45	36.3	36.3	36.3	80	30.7	0	0	---	0.00	30.205 
03:50	36.3	36.3	36.3	81	31.0	0	0	---	0.00	30.205 
03:55	36.3	36.3	36.3	81	31.0	0	0	---	0.00	30.205 
04:00	36.2	36.2	36.2	81	30.9	0	0	---	0.00	30.210 
04:05	36.2	36.2	36.2	81	30.9	0	0	---	0.00	30.210 
04:10	36.0	36.0	36.0	82	31.0	0	0	---	0.00	30.210 
04:15	36.0	36.0	36.0	82	31.0	0	0	---	0.00	30.212 
04:20	36.0	36.0	36.0	82	31.0	0	0	---	0.00	30.212 
04:25	36.0	36.0	36.0	82	31.0	0	0	---	0.00	30.212 
04:30	35.9	35.9	35.9	81	30.6	0	0	---	0.00	30.215 
04:35	35.9	35.9	35.9	81	30.6	0	0	---	0.00	30.215 
04:40	35.8	35.8	35.8	81	30.6	0	0	---	0.00	30.215 
04:45	35.8	35.8	35.8	81	30.6	0	0	---	0.00	30.217 
04:50	35.8	35.8	35.8	80	30.2	0	0	---	0.00	30.217 
04:55	35.6	35.6	35.6	81	30.4	0	0	---	0.00	30.217 
05:00	35.5	35.5	35.5	81	30.3	0	0	---	0.00	30.218 
05:05	35.5	35.5	35.5	81	30.3	0	0	---	0.00	30.218 
05:10	35.3	35.3	35.3	81	30.1	0	0	---	0.00	30.218 
05:15	35.3	35.3	35.3	82	30.4	0	0	---	0.00	30.229 
05:20	35.2	35.2	35.2	82	30.3	0	0	---	0.00	30.229 
05:25	35.2	35.2	35.2	82	30.3	0	0	---	0.00	30.229 
05:30	35.0	35.0	35.0	83	30.4	0	0	---	0.00	30.232 
05:35	35.0	35.0	35.0	83	30.4	0	0	---	0.00	30.232 
05:40	34.9	34.9	34.9	83	30.3	0	0	---	0.00	30.232 
05:45	34.9	34.9	34.9	84	30.6	0	0	---	0.00	30.238 
05:50	34.7	34.7	34.7	84	30.4	0	0	---	0.00	30.238 
05:55	34.6	34.6	34.6	84	30.3	0	0	---	0.00	30.238 
06:00	34.4	34.4	34.4	84	30.1	0	0	---	0.00	30.246 
06:05	34.4	34.4	34.4	84	30.1	0	0	---	0.00	30.246 
06:10	34.3	34.3	34.3	84	30.0	0	0	---	0.00	30.246 
06:15	34.3	34.3	34.3	85	30.3	0	0	---	0.00	30.252 
06:20	34.3	34.3	34.3	86	30.6	0	0	---	0.00	30.252 
06:25	34.1	34.1	34.1	86	30.4	0	0	---	0.00	30.252 
06:30	34.1	34.1	34.1	86	30.4	0	0	---	0.00	30.259 
06:35	34.0	34.0	34.0	86	30.3	0	0	---	0.00	30.259 
06:40	34.0	34.0	34.0	87	30.5	0	0	---	0.00	30.259 
06:45	34.0	34.0	34.0	87	30.5	0	0	---	0.00	30.266 
06:50	34.0	34.0	34.0	87	30.5	0	0	---	0.00	30.266 
06:55	34.0	34.0	34.0	87	30.5	0	0	---	0.00	30.266 
07:00	34.1	34.1	34.1	87	30.6	0	0	---	0.00	30.275 
07:05	34.3	34.3	34.3	88	31.1	0	0	---	0.00	30.275 
07:10	34.4	34.4	34.4	88	31.2	0	0	---	0.00	30.275 
07:15	34.7	34.7	34.7	88	31.5	0	0	---	0.00	30.280 
07:20	35.2	35.2	35.2	88	32.0	0	0	---	0.00	30.280 
07:25	35.9	35.9	35.9	89	33.0	0	0	---	0.00	30.280 
07:30	36.8	36.8	36.8	88	33.6	0	0	---	0.00	30.281 
07:35	37.5	37.5	37.5	86	33.7	0	0	---	0.00	30.281 
07:40	38.3	38.3	38.3	85	34.2	0	0	---	0.00	30.281 
07:45	39.6	39.6	39.6	81	34.3	0	0	---	0.00	30.288 
07:50	40.9	40.9	40.9	78	34.6	0	0	---	0.00	30.288 
07:55	42.3	42.3	42.3	74	34.6	0	0	---	0.00	30.288 
08:00	43.5	43.5	43.5	71	34.7	0	0	---	0.00	30.288 
08:05	45.1	45.1	45.1	64	33.7	0	0	---	0.00	30.288 
08:10	46.5	46.5	46.5	63	34.6	0	0	---	0.00	30.288 
08:15	47.7	47.7	47.7	62	35.3	0	0	---	0.00	30.283 
08:20	48.9	48.9	48.9	55	33.5	0	1	270	0.00	30.283 
08:25	49.8	49.8	49.8	54	33.8	0	0	---	0.00	30.283 
08:30	50.2	50.2	50.2	51	32.8	0	1	270	0.00	30.285 
08:35	50.1	50.1	50.1	49	31.7	0	1	270	0.00	30.285 
08:40	50.5	50.5	50.5	50	32.6	0	1	270	0.00	30.285 
08:45	51.1	51.1	51.1	49	32.6	0	2	270	0.00	30.284 
08:50	51.3	51.3	51.3	50	33.3	1	3	270	0.00	30.284 
08:55	51.1	51.1	51.1	51	33.6	0	1	270	0.00	30.284 
09:00	51.6	51.6	51.6	46	31.5	0	2	270	0.00	30.286 
09:05	52.2	52.2	52.2	44	31.0	0	2	270	0.00	30.286 
09:10	52.3	52.3	52.3	46	32.1	0	2	270	0.00	30.286 
09:15	52.8	52.8	52.8	45	32.1	0	2	270	0.00	30.288 
09:20	53.6	53.6	53.6	43	31.7	0	2	270	0.00	30.288 
09:25	54.7	54.7	54.7	43	32.6	0	2	270	0.00	30.288 
09:30	54.7	54.7	54.7	41	31.5	1	2	292	0.00	30.287 
09:35	54.8	54.8	54.8	42	32.2	1	3	338	0.00	30.287 
09:40	55.0	55.0	55.0	42	32.3	1	4	45	0.00	30.287 
09:45	55.4	55.4	55.4	43	33.3	1	3	45	0.00	30.288 
09:50	55.9	55.9	55.9	43	33.7	1	1	45	0.00	30.288 
09:55	56.6	56.6	56.6	39	31.9	1	3	45	0.00	30.288 
10:00	57.0	57.0	57.0	37	31.0	0	2	45	0.00	30.286 
10:05	57.5	57.5	57.5	42	34.6	1	3	270	0.00	30.286 
10:10	58.3	58.3	58.3	38	32.8	0	2	270	0.00	30.286 
10:15	58.6	58.6	58.6	33	29.6	0	3	90	0.00	30.286 
10:20	59.0	59.0	59.0	33	29.9	1	3	90	0.00	30.286 
10:25	59.2	59.2	59.2	36	32.3	1	3	112	0.00	30.286 
10:30	59.5	59.5	59.5	32	29.6	1	3	90	0.00	30.285 
10:35	60.1	60.1	60.1	35	32.4	0	2	90	0.00	30.285 
10:40	60.2	60.2	60.2	33	31.0	1	2	90	0.00	30.285 
10:45	60.5	60.5	60.5	29	28.1	1	3	112	0.00	30.283 
10:50	60.9	60.9	60.9	28	27.6	1	4	68	0.00	30.283 
10:55	61.0	61.0	61.0	30	29.3	2	5	68	0.00	30.283 
11:00	60.7	60.7	60.7	32	30.7	1	5	90	0.00	30.283 
11:05	60.9	60.9	60.9	32	30.8	1	3	90	0.00	30.283 
11:10	61.2	61.2	61.2	33	31.9	1	3	90	0.00	30.283 
11:15	61.8	61.8	61.8	28	28.4	1	3	112	0.00	30.284 
11:20	62.1	62.1	62.1	28	28.6	1	3	90	0.00	30.284 
11:25	62.4	62.4	62.4	32	32.2	0	3	90	0.00	30.284 
11:30	62.1	62.1	62.1	28	28.6	0	2	248	0.00	30.284 
11:35	62.1	62.1	62.1	27	27.7	2	4	90	0.00	30.284 
11:40	62.4	62.4	62.4	29	29.7	1	3	90	0.00	30.284 
11:45	62.7	62.7	62.7	28	29.1	1	5	90	0.00	30.282 
11:50	62.9	62.9	62.9	26	27.5	1	3	90	0.00	30.282 
11:55	62.7	62.7	62.7	34	33.9	2	5	68	0.00	30.282 
12:00	63.1	63.1	63.1	28	29.5	1	4	112	0.00	30.276 
12:05	63.4	63.4	63.4	28	29.7	1	4	90	0.00	30.276 
12:10	63.7	63.7	63.7	30	31.7	1	3	135	0.00	30.276 
12:15	63.4	63.4	63.4	28	29.7	2	7	90	0.00	30.275 
12:20	63.5	63.5	63.5	27	28.9	1	4	45	0.00	30.275 
12:25	63.7	63.7	63.7	34	34.8	2	7	90	0.00	30.275 
12:30	63.9	63.9	63.9	30	31.9	1	4	90	0.00	30.277 
12:35	63.9	63.9	63.9	27	29.3	2	6	90	0.00	30.277 
12:40	63.7	63.7	63.7	30	31.7	2	5	112	0.00	30.277 
12:45	64.2	64.2	64.2	28	30.4	0	3	292	0.00	30.277 
12:50	64.5	64.5	64.5	31	33.2	0	3	68	0.00	30.277 
12:55	64.8	64.8	64.8	35	36.5	1	3	68	0.00	30.277 
13:00	65.0	65.0	65.0	28	31.1	2	7	90	0.00	30.268 
13:05	65.2	65.2	65.2	29	32.1	1	5	90	0.00	30.268 
13:10	64.5	64.5	64.5	28	30.7	3	5	90	0.00	30.268 
13:15	64.5	64.5	64.5	29	31.5	2	5	90	0.00	30.270 
13:20	64.7	64.7	64.7	31	33.4	1	5	90	0.00	30.270 
13:25	64.5	64.5	64.5	27	29.8	2	5	90	0.00	30.270 
13:30	64.5	64.5	64.5	35	36.2	1	4	112	0.00	30.260 
13:35	64.8	64.8	64.8	29	31.8	2	6	90	0.00	30.260 
13:40	65.0	65.0	65.0	27	30.2	2	6	90	0.00	30.260 
13:45	65.0	65.0	65.0	27	30.2	2	4	112	0.00	30.256 
13:50	65.3	65.3	65.3	36	37.7	2	5	90	0.00	30.256 
13:55	65.6	65.6	65.6	30	33.3	2	6	90	0.00	30.256 
14:00	65.8	65.8	65.8	28	31.8	2	7	112	0.00	30.249 
14:05	65.6	65.6	65.6	27	30.7	2	5	90	0.00	30.249 
14:10	65.8	65.8	65.8	29	32.7	1	3	90	0.00	30.249 
14:15	65.8	65.8	65.8	31	34.3	2	7	112	0.00	30.248 
14:20	65.6	65.6	65.6	33	35.7	2	5	90	0.00	30.248 
14:25	65.8	65.8	65.8	28	31.8	2	10	112	0.00	30.248 
14:30	66.0	66.0	66.0	27	31.1	3	7	112	0.00	30.241 
14:35	66.0	66.0	66.0	32	35.3	1	4	90	0.00	30.241 
14:40	66.3	66.3	66.3	34	37.1	1	4	112	0.00	30.241 
14:45	66.6	66.6	66.6	29	33.3	1	5	90	0.00	30.238 
14:50	66.3	66.3	66.3	26	30.4	2	7	112	0.00	30.238 
14:55	66.4	66.4	66.4	27	31.4	1	5	112	0.00	30.238 
15:00	66.4	66.4	66.4	30	34.0	3	10	112	0.00	30.238 
15:05	66.6	66.6	66.6	27	31.6	2	4	90	0.00	30.238 
15:10	66.8	66.8	66.8	27	31.7	2	4	90	0.00	30.238 
15:15	66.9	66.9	66.9	25	29.9	1	3	112	0.00	30.233 
15:20	67.1	67.1	67.1	28	32.9	1	2	112	0.00	30.233 
15:25	67.3	67.3	67.3	27	32.2	2	4	90	0.00	30.233 
15:30	66.9	66.9	66.9	29	33.6	2	4	90	0.00	30.227 
15:35	66.4	66.4	66.4	28	32.3	3	6	90	0.00	30.227 
15:40	66.4	66.4	66.4	27	31.4	2	7	90	0.00	30.227 
15:45	66.4	66.4	66.4	30	34.0	2	6	112	0.00	30.221 
15:50	66.6	66.6	66.6	27	31.6	2	4	90	0.00	30.221 
15:55	66.4	66.4	66.4	30	34.0	2	5	90	0.00	30.221 
16:00	66.4	66.4	66.4	28	32.3	2	5	90	0.00	30.211 
16:05	66.6	66.6	66.6	27	31.6	1	4	112	0.00	30.211 
16:10	66.9	66.9	66.9	25	29.9	2	6	112	0.00	30.211 
16:15	67.1	67.1	67.1	26	31.1	2	6	112	0.00	30.201 
16:20	67.1	67.1	67.1	28	32.9	2	6	90	0.00	30.201 
16:25	66.9	66.9	66.9	28	32.7	3	9	90	0.00	30.201 
16:30	66.4	66.4	66.4	26	30.5	4	9	90	0.00	30.194 
16:35	66.3	66.3	66.3	27	31.3	3	7	90	0.00	30.194 
16:40	66.8	66.8	66.8	25	29.8	2	7	90	0.00	30.194 
16:45	66.6	66.6	66.6	25	29.7	4	9	90	0.00	30.189 
16:50	66.8	66.8	66.8	27	31.7	2	6	90	0.00	30.189 
16:55	66.6	66.6	66.6	26	30.6	3	6	112	0.00	30.189 
17:00	66.8	66.8	66.8	27	31.7	2	6	90	0.00	30.180 
17:05	66.9	66.9	66.9	27	31.8	2	7	90	0.00	30.180 
17:10	66.8	66.8	66.8	28	32.6	4	7	90	0.00	30.180 
17:15	66.6	66.6	66.6	27	31.6	3	9	90	0.00	30.180 
17:20	66.8	66.8	66.8	27	31.7	3	9	112	0.00	30.180 
17:25	66.8	66.8	66.8	27	31.7	2	7	90	0.00	30.180 
17:30	66.8	66.8	66.8	26	30.8	3	9	90	0.00	30.178 
17:35	66.6	66.6	66.6	27	31.6	2	5	90	0.00	30.178 
17:40	66.6	66.6	66.6	27	31.6	2	4	90	0.00	30.178 
17:45	66.6	66.6	66.6	25	29.7	2	8	90	0.00	30.170 
17:50	66.6	66.6	66.6	26	30.6	2	4	112	0.00	30.170 
17:55	66.4	66.4	66.4	28	32.3	2	4	112	0.00	30.170 
18:00	66.4	66.4	66.4	25	29.5	3	6	90	0.00	30.164 
18:05	66.1	66.1	66.1	27	31.1	2	6	90	0.00	30.164 
18:10	65.8	65.8	65.8	28	31.8	2	5	90	0.00	30.164 
18:15	65.6	65.6	65.6	27	30.7	3	7	90	0.00	30.158 
18:20	65.6	65.6	65.6	28	31.6	2	6	112	0.00	30.158 
18:25	65.6	65.6	65.6	27	30.7	3	6	90	0.00	30.158 
18:30	65.6	65.6	65.6	30	33.3	2	6	90	0.00	30.153 
18:35	65.6	65.6	65.6	28	31.6	2	5	90	0.00	30.153 
18:40	65.8	65.8	65.8	28	31.8	2	6	90	0.00	30.153 
18:45	65.8	65.8	65.8	27	30.9	2	4	112	0.00	30.148 
18:50	65.6	65.6	65.6	29	32.5	3	5	90	0.00	30.148 
18:55	65.5	65.5	65.5	28	31.5	1	4	90	0.00	30.148 
19:00	65.3	65.3	65.3	28	31.4	1	5	90	0.00	30.147 
19:05	65.2	65.2	65.2	27	30.4	2	8	90	0.00	30.147 
19:10	65.2	65.2	65.2	29	32.1	1	4	112	0.00	30.147 
19:15	65.2	65.2	65.2	28	31.3	1	3	68	0.00	30.127 
19:20	65.0	65.0	65.0	28	31.1	2	10	112	0.00	30.127 
19:25	64.8	64.8	64.8	29	31.8	1	4	90	0.00	30.127 
19:30	64.7	64.7	64.7	27	29.9	1	6	112	0.00	30.125 
19:35	64.5	64.5	64.5	27	29.8	1	4	112	0.00	30.125 
19:40	64.5	64.5	64.5	29	31.5	2	7	112	0.00	30.125 
19:45	64.3	64.3	64.3	28	30.5	2	5	112	0.00	30.121 
19:50	64.2	64.2	64.2	30	32.1	1	5	112	0.00	30.121 
19:55	63.9	63.9	63.9	30	31.9	1	4	90	0.00	30.121 
20:00	63.7	63.7	63.7	30	31.7	1	5	112	0.00	30.125 
20:05	63.5	63.5	63.5	31	32.3	1	2	90	0.00	30.125 
20:10	63.2	63.2	63.2	31	32.1	0	1	90	0.00	30.125 
20:15	63.1	63.1	63.1	34	34.3	0	1	90	0.00	30.132 
20:20	62.6	62.6	62.6	33	33.1	0	3	90	0.00	30.132 
20:25	62.3	62.3	62.3	34	33.6	0	1	90	0.00	30.132 
20:30	62.0	62.0	62.0	35	34.0	0	1	90	0.00	30.127 
20:35	61.6	61.6	61.6	34	33.0	0	1	90	0.00	30.127 
20:40	61.3	61.3	61.3	37	34.8	0	1	90	0.00	30.127 
20:45	60.9	60.9	60.9	38	35.1	0	0	---	0.00	30.139 
20:50	60.4	60.4	60.4	38	34.7	0	0	---	0.00	30.139 
20:55	59.8	59.8	59.8	39	34.8	0	0	---	0.00	30.139 
21:00	59.2	59.2	59.2	41	35.5	0	0	---	0.00	30.143 
21:05	58.6	58.6	58.6	42	35.6	0	0	---	0.00	30.143 
21:10	57.8	57.8	57.8	42	34.9	0	0	---	0.00	30.143 
21:15	57.2	57.2	57.2	42	34.3	0	0	---	0.00	30.138 
21:20	56.7	56.7	56.7	46	36.2	0	0	---	0.00	30.138 
21:25	56.5	56.5	56.5	47	36.5	0	0	---	0.00	30.138 
21:30	56.2	56.2	56.2	48	36.8	0	0	---	0.00	30.138 
21:35	55.9	55.9	55.9	47	36.0	0	0	---	0.00	30.138 
21:40	55.6	55.6	55.6	48	36.2	0	0	---	0.00	30.138 
21:45	55.1	55.1	55.1	49	36.3	0	0	---	0.00	30.140 
21:50	54.8	54.8	54.8	49	36.0	0	0	---	0.00	30.140 
21:55	54.4	54.4	54.4	50	36.2	0	0	---	0.00	30.140 
22:00	54.2	54.2	54.2	51	36.5	0	1	90	0.00	30.140 
22:05	54.4	54.4	54.4	50	36.2	0	1	90	0.00	30.140 
22:10	54.5	54.5	54.5	51	36.7	0	1	90	0.00	30.140 
22:15	54.7	54.7	54.7	51	36.9	0	1	90	0.00	30.134 
22:20	54.7	54.7	54.7	51	36.9	0	1	90	0.00	30.134 
22:25	54.5	54.5	54.5	53	37.7	0	1	90	0.00	30.134 
22:30	54.5	54.5	54.5	52	37.2	0	1	90	0.00	30.133 
22:35	54.5	54.5	54.5	52	37.2	0	1	90	0.00	30.133 
22:40	54.4	54.4	54.4	52	37.1	0	0	---	0.00	30.133 
22:45	54.2	54.2	54.2	52	37.0	0	0	---	0.00	30.138 
22:50	54.1	54.1	54.1	52	36.9	0	0	---	0.00	30.138 
22:55	53.8	53.8	53.8	53	37.1	0	0	---	0.00	30.138 
23:00	53.5	53.5	53.5	53	36.8	0	1	90	0.00	30.138 
23:05	53.2	53.2	53.2	54	37.0	0	0	---	0.00	30.138 
23:10	52.9	52.9	52.9	55	37.2	0	0	---	0.00	30.138 
23:15	52.8	52.8	52.8	57	38.0	0	0	---	0.00	30.134 
23:20	52.5	52.5	52.5	56	37.3	0	1	90	0.00	30.134 
23:25	52.6	52.6	52.6	55	36.9	0	1	90	0.00	30.134 
23:30	53.1	53.1	53.1	54	36.9	0	1	90	0.00	30.128 
23:35	53.3	53.3	53.3	54	37.1	0	1	90	0.00	30.128 
23:40	53.5	53.5	53.5	54	37.3	0	1	90	0.00	30.128 
23:45	53.5	53.5	53.5	54	37.3	0	1	90	0.00	30.121 
23:50	53.5	53.5	53.5	54	37.3	0	1	90	0.00	30.121 
23:55	53.5	53.5	53.5	54	37.3	0	1	90	0.00	30.121 

CoCoRaHS
IN-AL-39
A2 Web Hosting
Creative Commons License
GoDaddy
search engine by freefind advanced

loaded 2018-11-14 03:34:17 • last modified 2010-11-18 10:43:29
Privacy PolicyDisclaimer
• wx.awcolley.com is powered by PmWiki v.2002016 •
• all content (unless otherwise noted) © 2018 A W Colley